Terminal Aerodrome Forecast
Issued by NWS Buffalo, NY

Home | Current Version | Previous Version | Text Only | Print | Product List | Glossary On
Versions: 1 2 3 4 5 6 7 8 9 10 11 12 13 14 15 16 17 18 19 20 21 22 23 24 25 26 27 28 29 30 31 32 33 34 35 36 37 38 39 40 41 42 43 44 45 46 47 48
331
FTUS41 KBUF 221733
TAFROC
TAF
KROC 221733Z 2218/2318 22010KT P6SM SCT120 SCT250
     FM221930 22012G18KT P6SM SCT120
     FM222200 21008KT P6SM SCT250
     FM230800 21010KT P6SM BKN120 WS020/24040KT
     FM231300 22012G22KT 6SM -SHRA SCT035 BKN050
     FM231700 23015G30KT P6SM VCSH BKN035=

USA.gov is the U.S. government's official web portal to all federal, state and local government web resources and services.